Time;durP1;ratioP1;P1;durP2;ratioP2;P2;SDS_P1;SDS_P2;PMS_P1;PMS_P2;Temp;Humidity;BMP_temperature;BMP_pressure;BME280_temperature;BME280_humidity;BME280_pressure;Samples;Min_cycle;Max_cycle;Signal;HPM_P1;HPM_P2
2022/04/10 13:01:01;;;;;;;3.27;3.07;;;;;;;;;;5005607;27;3952229;-81
2022/04/10 13:03:31;;;;;;;3.43;2.90;;;;;;;;;;5137951;27;20203;-79
2022/04/10 13:05:59;;;;;;;3.17;2.93;;;;;;;;;;5114215;28;20604;-78
2022/04/10 13:08:27;;;;;;;4.13;3.40;;;;;;;;;;5119278;28;20195;-79
2022/04/10 13:10:57;;;;;;;4.23;3.20;;;;;;;;;;5115981;28;20260;-83
2022/04/10 13:13:25;;;;;;;3.83;3.43;;;;;;;;;;5116854;28;20205;-80
2022/04/10 13:15:56;;;;;;;4.67;3.57;;;;;;;;;;5115783;28;20294;-80
2022/04/10 13:18:29;;;;;;;5.10;4.67;;;;;;;;;;5110219;28;20217;-80
2022/04/10 13:20:57;;;;;;;4.20;3.80;;;;;;;;;;5110005;28;20232;-80
2022/04/10 13:23:24;;;;;;;4.53;3.50;;;;;;;;;;5112367;28;20211;-80
2022/04/10 13:25:51;;;;;;;4.00;3.60;;;;;;;;;;5106760;28;20219;-80
2022/04/10 13:28:20;;;;;;;3.80;3.50;;;;;;;;;;5100206;28;20243;-84
2022/04/10 13:30:47;;;;;;;4.10;3.63;;;;;;;;;;5095698;28;20203;-81
2022/04/10 13:33:16;;;;;;;4.20;3.80;;;;;;;;;;5106420;28;20275;-81
2022/04/10 13:35:45;;;;;;;4.17;3.50;;;;;;;;;;5110247;28;20246;-80
2022/04/10 13:38:13;;;;;;;3.77;3.47;;;;;;;;;;5092760;28;20283;-80
2022/04/10 13:40:41;;;;;;;3.37;3.07;;;;;;;;;;5108972;28;20203;-80
2022/04/10 13:43:08;;;;;;;4.17;3.40;;;;;;;;;;5114726;28;20203;-80
2022/04/10 13:45:36;;;;;;;3.67;3.30;;;;;;;;;;5109331;28;20219;-80
2022/04/10 13:48:03;;;;;;;3.27;2.97;;;;;;;;;;5126444;28;20676;-80
2022/04/10 13:50:32;;;;;;;3.40;3.10;;;;;;;;;;5118332;28;20191;-78
2022/04/10 13:52:59;;;;;;;3.40;3.10;;;;;;;;;;5125539;28;20202;-78
2022/04/10 13:55:26;;;;;;;4.80;3.70;;;;;;;;;;5127288;28;20215;-78
2022/04/10 13:57:54;;;;;;;4.13;3.57;;;;;;;;;;5128811;28;20199;-78
2022/04/10 14:00:21;;;;;;;6.43;3.73;;;;;;;;;;5120960;28;20236;-79
2022/04/10 14:02:48;;;;;;;3.97;3.60;;;;;;;;;;5102316;28;20226;-79
2022/04/10 14:05:16;;;;;;;3.50;3.20;;;;;;;;;;5098632;28;20214;-79
2022/04/10 14:07:44;;;;;;;4.40;3.63;;;;;;;;;;5111593;28;20199;-79
2022/04/10 14:10:12;;;;;;;4.10;3.70;;;;;;;;;;5110586;28;20310;-79
2022/04/10 14:12:41;;;;;;;3.80;3.50;;;;;;;;;;5107792;28;20273;-79
2022/04/10 14:15:08;;;;;;;5.67;3.67;;;;;;;;;;5110167;28;20246;-79
2022/04/10 14:17:36;;;;;;;4.43;3.97;;;;;;;;;;5098886;28;20211;-79
2022/04/10 14:20:03;;;;;;;5.03;3.60;;;;;;;;;;5099798;28;20234;-80
2022/04/10 14:22:31;;;;;;;3.90;3.20;;;;;;;;;;5110637;28;20194;-80
2022/04/10 14:25:03;;;;;;;3.93;3.53;;;;;;;;;;5104544;28;20216;-79
2022/04/10 14:27:31;;;;;;;3.47;3.20;;;;;;;;;;5098980;28;20191;-80
2022/04/10 14:29:58;;;;;;;4.30;3.47;;;;;;;;;;5103129;28;20250;-80
2022/04/10 14:32:25;;;;;;;3.40;3.10;;;;;;;;;;5101927;28;20234;-80
2022/04/10 14:34:54;;;;;;;5.32;3.20;;;;;;;;;;5098875;28;20219;-80
2022/04/10 14:37:21;;;;;;;3.30;2.60;;;;;;;;;;5093305;28;20235;-80
2022/04/10 14:39:49;;;;;;;2.90;2.50;;;;;;;;;;5092942;28;20219;-80
2022/04/10 14:42:17;;;;;;;4.07;3.17;;;;;;;;;;5097415;28;20207;-79
2022/04/10 14:44:46;;;;;;;2.72;2.50;;;;;;;;;;5089137;28;20228;-79
2022/04/10 14:47:13;;;;;;;3.60;3.00;;;;;;;;;;5090180;28;20205;-79
2022/04/10 14:49:45;;;;;;;3.10;2.80;;;;;;;;;;5096066;28;20212;-79
2022/04/10 14:52:15;;;;;;;3.60;3.30;;;;;;;;;;5093808;28;20200;-79
2022/04/10 14:54:43;;;;;;;3.58;2.78;;;;;;;;;;5108988;28;20367;-80
2022/04/10 14:57:11;;;;;;;3.45;2.35;;;;;;;;;;5096841;28;20214;-79
2022/04/10 14:59:40;;;;;;;3.00;2.60;;;;;;;;;;5104753;28;20215;-79
2022/04/10 15:02:08;;;;;;;2.97;2.45;;;;;;;;;;5105769;28;20207;-79
2022/04/10 15:04:35;;;;;;;3.47;2.60;;;;;;;;;;5103378;28;20302;-80
2022/04/10 15:07:02;;;;;;;2.75;2.40;;;;;;;;;;5099921;28;20202;-79
2022/04/10 15:09:30;;;;;;;2.80;2.50;;;;;;;;;;5096688;28;20220;-86
2022/04/10 15:11:58;;;;;;;4.15;2.75;;;;;;;;;;5100509;28;20206;-80
2022/04/10 15:14:25;;;;;;;2.72;2.53;;;;;;;;;;5103018;28;20230;-79
2022/04/10 15:16:54;;;;;;;3.30;2.55;;;;;;;;;;5101583;28;20196;-79
2022/04/10 15:19:21;;;;;;;3.20;2.53;;;;;;;;;;5101257;28;20201;-79
2022/04/10 15:21:48;;;;;;;3.38;2.70;;;;;;;;;;5104058;28;20200;-80
2022/04/10 15:24:16;;;;;;;3.53;3.00;;;;;;;;;;5100411;28;20227;-80
2022/04/10 15:26:45;;;;;;;3.50;3.20;;;;;;;;;;5104100;28;20216;-80
2022/04/10 15:29:13;;;;;;;3.20;2.90;;;;;;;;;;5104218;28;20242;-80
2022/04/10 15:31:40;;;;;;;3.67;2.90;;;;;;;;;;5103148;28;20197;-80
2022/04/10 15:34:09;;;;;;;3.23;2.93;;;;;;;;;;5096160;28;20232;-79
2022/04/10 15:36:36;;;;;;;3.07;2.77;;;;;;;;;;5115217;28;20230;-79
2022/04/10 15:39:04;;;;;;;3.67;3.30;;;;;;;;;;5122090;28;20252;-78
2022/04/10 15:41:31;;;;;;;3.80;3.50;;;;;;;;;;5110640;28;20243;-79
2022/04/10 15:43:58;;;;;;;3.60;3.30;;;;;;;;;;5116138;28;20222;-78
2022/04/10 15:46:27;;;;;;;4.43;3.37;;;;;;;;;;5100543;28;20207;-81
2022/04/10 15:48:54;;;;;;;3.43;3.10;;;;;;;;;;5120507;28;20188;-81
2022/04/10 15:51:22;;;;;;;8.03;5.57;;;;;;;;;;5116235;28;20223;-81
2022/04/10 15:53:50;;;;;;;4.57;3.50;;;;;;;;;;5120745;28;20202;-81
2022/04/10 15:56:17;;;;;;;4.33;2.93;;;;;;;;;;5117123;28;20207;-81
2022/04/10 15:58:44;;;;;;;2.95;2.65;;;;;;;;;;5116727;28;20204;-81
2022/04/10 16:01:12;;;;;;;3.45;2.80;;;;;;;;;;5114520;28;20207;-81
2022/04/10 16:03:39;;;;;;;3.08;2.78;;;;;;;;;;5110069;28;20223;-79
2022/04/10 16:06:07;;;;;;;3.30;2.60;;;;;;;;;;5092205;28;20200;-80
2022/04/10 16:08:36;;;;;;;3.33;2.90;;;;;;;;;;5098159;28;20278;-81
2022/04/10 16:11:03;;;;;;;3.35;3.05;;;;;;;;;;5103467;28;20277;-80
2022/04/10 16:13:32;;;;;;;3.50;2.92;;;;;;;;;;5112716;28;20230;-81
2022/04/10 16:15:59;;;;;;;3.45;3.15;;;;;;;;;;5103638;28;20206;-80
2022/04/10 16:18:26;;;;;;;4.20;3.67;;;;;;;;;;5103629;28;20222;-81
2022/04/10 16:20:54;;;;;;;3.88;3.38;;;;;;;;;;5107968;28;20291;-81
2022/04/10 16:23:21;;;;;;;4.65;3.45;;;;;;;;;;5103935;28;20210;-80
2022/04/10 16:25:49;;;;;;;3.83;3.53;;;;;;;;;;5107047;28;20222;-80
2022/04/10 16:31:02;;;;;;;3.87;3.40;;;;;;;;;;5110751;28;20236;-80
2022/04/10 16:33:29;;;;;;;3.50;3.20;;;;;;;;;;5111031;28;20223;-80
2022/04/10 16:35:57;;;;;;;4.33;3.70;;;;;;;;;;5106307;28;20285;-80
2022/04/10 16:38:24;;;;;;;4.40;3.90;;;;;;;;;;5108443;28;20203;-78
2022/04/10 16:40:53;;;;;;;3.47;3.17;;;;;;;;;;5116430;28;20191;-82
2022/04/10 16:43:20;;;;;;;4.27;3.87;;;;;;;;;;5109337;28;20269;-79
2022/04/10 16:45:47;;;;;;;3.93;3.30;;;;;;;;;;5122071;28;20306;-79
2022/04/10 16:48:15;;;;;;;4.03;3.60;;;;;;;;;;5115253;28;20235;-78
2022/04/10 16:50:42;;;;;;;3.60;3.30;;;;;;;;;;5110634;28;20260;-79
2022/04/10 16:53:11;;;;;;;4.10;3.30;;;;;;;;;;5100485;28;20215;-79
2022/04/10 16:55:39;;;;;;;4.47;3.97;;;;;;;;;;5094247;28;20251;-79
2022/04/10 16:58:08;;;;;;;4.57;3.90;;;;;;;;;;5100995;28;20287;-81
2022/04/10 17:00:36;;;;;;;3.70;3.40;;;;;;;;;;5098205;28;20230;-80
2022/04/10 17:03:04;;;;;;;4.10;3.70;;;;;;;;;;5098610;28;20196;-80
2022/04/10 17:05:31;;;;;;;4.13;3.73;;;;;;;;;;5099899;28;20269;-81
2022/04/10 17:07:58;;;;;;;5.10;3.43;;;;;;;;;;5099515;28;20196;-82
2022/04/10 17:10:26;;;;;;;3.90;3.30;;;;;;;;;;5097364;28;20306;-80
2022/04/10 17:12:53;;;;;;;4.67;3.63;;;;;;;;;;5097183;28;20258;-81
2022/04/10 17:15:21;;;;;;;4.70;3.70;;;;;;;;;;5097818;28;20227;-82
2022/04/10 17:17:49;;;;;;;3.90;3.60;;;;;;;;;;5097494;28;20281;-80
2022/04/10 17:20:16;;;;;;;4.40;4.00;;;;;;;;;;5094025;28;20211;-81
2022/04/10 17:22:44;;;;;;;4.57;3.23;;;;;;;;;;5094141;28;20207;-82
2022/04/10 17:25:11;;;;;;;5.57;4.10;;;;;;;;;;5100241;28;20255;-79
2022/04/10 17:27:39;;;;;;;4.00;3.70;;;;;;;;;;5100628;28;20199;-86
2022/04/10 17:30:07;;;;;;;5.03;4.10;;;;;;;;;;5100130;28;20220;-78
2022/04/10 17:32:36;;;;;;;5.83;3.47;;;;;;;;;;5100858;28;20287;-78
2022/04/10 17:35:04;;;;;;;3.83;3.50;;;;;;;;;;5100375;28;20674;-78
2022/04/10 17:37:31;;;;;;;3.80;3.37;;;;;;;;;;5108923;28;20207;-80
2022/04/10 17:39:58;;;;;;;4.20;3.80;;;;;;;;;;5089537;28;20287;-77
2022/04/10 17:42:25;;;;;;;4.37;3.90;;;;;;;;;;5093037;28;20208;-77
2022/04/10 17:44:53;;;;;;;4.23;3.90;;;;;;;;;;5092808;28;20301;-77
2022/04/10 17:47:20;;;;;;;4.10;3.70;;;;;;;;;;5088358;28;20192;-77
2022/04/10 17:49:48;;;;;;;4.23;3.80;;;;;;;;;;5095080;28;20298;-79
2022/04/10 17:52:16;;;;;;;4.87;4.37;;;;;;;;;;5094187;28;20255;-76
2022/04/10 17:54:43;;;;;;;5.27;4.50;;;;;;;;;;5093472;28;20215;-76
2022/04/10 17:57:10;;;;;;;4.90;4.40;;;;;;;;;;5086717;28;20197;-76
2022/04/10 17:59:39;;;;;;;6.17;5.33;;;;;;;;;;5075308;28;20212;-76
2022/04/10 18:02:07;;;;;;;5.53;4.47;;;;;;;;;;5078851;28;20193;-81
2022/04/10 18:04:34;;;;;;;4.63;4.23;;;;;;;;;;5090150;28;20243;-80
2022/04/10 18:07:03;;;;;;;5.80;4.70;;;;;;;;;;5085412;28;20197;-77
2022/04/10 18:09:31;;;;;;;7.80;4.60;;;;;;;;;;5085289;28;20196;-78
2022/04/10 18:11:58;;;;;;;6.70;4.70;;;;;;;;;;5095987;28;20196;-78
2022/04/10 18:14:25;;;;;;;6.03;5.30;;;;;;;;;;5097122;28;20220;-78
2022/04/10 18:16:53;;;;;;;5.83;4.60;;;;;;;;;;5097623;28;20261;-78
2022/04/10 18:19:21;;;;;;;5.27;4.77;;;;;;;;;;5099739;28;20283;-79
2022/04/10 18:21:48;;;;;;;6.87;5.30;;;;;;;;;;5098070;28;20196;-79
2022/04/10 18:24:17;;;;;;;9.30;7.37;;;;;;;;;;5100640;28;20257;-80
2022/04/10 18:26:48;;;;;;;9.13;5.77;;;;;;;;;;5075210;22;20222;-78
2022/04/10 18:29:15;;;;;;;6.33;5.03;;;;;;;;;;5035666;28;20213;-78
2022/04/10 18:31:42;;;;;;;5.90;5.37;;;;;;;;;;5034735;28;20221;-77
2022/04/10 18:34:10;;;;;;;6.87;5.23;;;;;;;;;;5035789;28;20202;-77
2022/04/10 18:36:37;;;;;;;7.03;6.17;;;;;;;;;;5029598;28;20210;-77
2022/04/10 18:39:06;;;;;;;8.50;5.80;;;;;;;;;;5013305;28;20263;-77
2022/04/10 18:41:35;;;;;;;5.87;5.27;;;;;;;;;;5011847;28;20285;-77
2022/04/10 18:44:05;;;;;;;6.27;5.07;;;;;;;;;;5013881;28;20228;-76
2022/04/10 18:46:32;;;;;;;6.07;4.87;;;;;;;;;;5014966;28;20305;-76
2022/04/10 18:51:48;;;;;;;9.27;7.80;;;;;;;;;;5013240;28;20272;-77
2022/04/10 18:54:15;;;;;;;10.77;9.50;;;;;;;;;;5010366;28;20234;-76
2022/04/10 18:56:44;;;;;;;8.23;7.07;;;;;;;;;;5013529;28;20238;-76
2022/04/10 18:59:11;;;;;;;6.57;5.87;;;;;;;;;;5013613;28;20252;-76
2022/04/10 19:01:40;;;;;;;6.23;5.57;;;;;;;;;;5013513;28;20191;-77
2022/04/10 19:04:08;;;;;;;7.23;5.97;;;;;;;;;;5013309;28;20214;-76
2022/04/10 19:06:35;;;;;;;7.57;6.30;;;;;;;;;;5013496;28;20253;-80
2022/04/10 19:09:02;;;;;;;6.40;5.80;;;;;;;;;;5009218;28;20249;-75
2022/04/10 19:11:30;;;;;;;6.97;6.10;;;;;;;;;;5012007;28;20273;-75
2022/04/10 19:13:58;;;;;;;7.60;6.80;;;;;;;;;;5012802;28;20198;-77
2022/04/10 19:16:29;;;;;;;7.23;5.97;;;;;;;;;;5012071;28;20222;-77
2022/04/10 19:18:56;;;;;;;7.33;6.00;;;;;;;;;;5011038;28;20207;-76
2022/04/10 19:21:25;;;;;;;7.70;6.40;;;;;;;;;;4996922;28;20261;-76
2022/04/10 19:23:52;;;;;;;6.37;5.77;;;;;;;;;;4993873;28;20207;-75
2022/04/10 19:26:32;;;;;;;6.03;5.43;;;;;;;;;;5024953;28;20226;-77
2022/04/10 19:29:01;;;;;;;8.37;6.00;;;;;;;;;;5026816;28;20213;-79
2022/04/10 19:31:28;;;;;;;6.13;5.53;;;;;;;;;;5018972;28;20218;-81
2022/04/10 19:33:56;;;;;;;9.53;8.43;;;;;;;;;;5013386;28;20258;-75
2022/04/10 19:36:23;;;;;;;6.43;5.83;;;;;;;;;;5011625;28;20218;-75
2022/04/10 19:38:50;;;;;;;6.80;6.20;;;;;;;;;;5018151;28;20213;-75
2022/04/10 19:41:25;;;;;;;7.83;6.50;;;;;;;;;;5032254;28;20202;-75
2022/04/10 19:43:58;;;;;;;7.33;6.63;;;;;;;;;;5021888;28;20277;-75
2022/04/10 19:46:26;;;;;;;8.33;7.63;;;;;;;;;;5012547;28;20215;-75
2022/04/10 19:48:57;;;;;;;8.47;7.67;;;;;;;;;;5022893;28;20194;-75
2022/04/10 19:51:28;;;;;;;8.53;7.70;;;;;;;;;;5025248;28;20218;-75
2022/04/10 19:54:00;;;;;;;9.73;7.43;;;;;;;;;;5015388;28;20269;-75
2022/04/10 19:56:31;;;;;;;8.00;7.30;;;;;;;;;;5016290;28;20218;-74
2022/04/10 19:59:05;;;;;;;8.00;7.20;;;;;;;;;;5026101;28;20277;-75
2022/04/10 20:04:19;;;;;;;7.83;7.13;;;;;;;;;;5001105;28;20214;-79
2022/04/10 20:10:35;;;;;;;;;;;;;;;;;;;;;
2022/04/10 20:46:24;;;;;;;9.67;8.03;;;;;;;;;;4798760;29;20265;-78
2022/04/10 20:48:51;;;;;;;10.60;7.53;;;;;;;;;;4851062;29;20211;-77
2022/04/10 20:51:21;;;;;;;9.00;8.20;;;;;;;;;;4872177;29;20347;-78
2022/04/10 20:53:52;;;;;;;8.73;7.83;;;;;;;;;;4872031;29;20203;-78
2022/04/10 20:56:19;;;;;;;8.73;7.97;;;;;;;;;;4864726;29;20224;-78
2022/04/10 20:58:46;;;;;;;9.03;8.10;;;;;;;;;;4866434;29;20229;-78
2022/04/10 21:01:15;;;;;;;8.73;7.67;;;;;;;;;;4885243;29;20243;-78
2022/04/10 21:03:45;;;;;;;8.80;7.90;;;;;;;;;;4911118;29;20221;-78
2022/04/10 21:06:12;;;;;;;8.57;7.20;;;;;;;;;;5015039;28;20298;-79
2022/04/10 21:08:39;;;;;;;10.07;8.40;;;;;;;;;;5045491;28;20209;-79
2022/04/10 21:11:19;;;;;;;10.30;8.03;;;;;;;;;;5035729;28;20214;-79
2022/04/10 21:13:49;;;;;;;9.30;7.90;;;;;;;;;;5029889;28;20202;-78
2022/04/10 21:16:16;;;;;;;9.57;8.67;;;;;;;;;;5041946;28;20236;-78
2022/04/10 21:18:48;;;;;;;8.67;7.87;;;;;;;;;;5049595;28;20220;-79
2022/04/10 21:21:15;;;;;;;8.90;7.77;;;;;;;;;;5035818;28;20218;-78
2022/04/10 21:23:42;;;;;;;8.73;7.93;;;;;;;;;;5029946;28;20237;-78
2022/04/10 21:26:10;;;;;;;10.73;8.33;;;;;;;;;;5029399;28;20230;-78
2022/04/10 21:28:37;;;;;;;8.83;7.93;;;;;;;;;;5029589;28;20195;-78
2022/04/10 21:31:04;;;;;;;9.47;8.47;;;;;;;;;;5039020;28;20257;-78
2022/04/10 21:33:32;;;;;;;10.17;8.77;;;;;;;;;;5048628;28;20194;-78
2022/04/10 21:36:05;;;;;;;9.67;7.83;;;;;;;;;;5039435;28;20276;-79
2022/04/10 21:38:32;;;;;;;8.97;8.03;;;;;;;;;;5029543;28;20206;-77
2022/04/10 21:41:02;;;;;;;9.43;7.70;;;;;;;;;;5028806;28;20203;-79
2022/04/10 21:43:29;;;;;;;9.13;7.90;;;;;;;;;;5029574;28;20190;-78
2022/04/10 21:45:57;;;;;;;8.63;7.60;;;;;;;;;;5026856;28;20257;-78
2022/04/10 21:48:24;;;;;;;12.53;9.53;;;;;;;;;;5028991;28;20198;-77
2022/04/10 21:50:51;;;;;;;10.63;8.63;;;;;;;;;;5028539;28;20273;-79
2022/04/10 21:53:20;;;;;;;9.30;8.40;;;;;;;;;;5029606;28;20206;-78
2022/04/10 21:58:56;;;;;;;10.00;9.00;;;;;;;;;;5029034;28;20222;-78
2022/04/10 22:01:28;;;;;;;10.20;9.20;;;;;;;;;;5018862;28;20201;-78
2022/04/10 22:03:58;;;;;;;9.87;8.87;;;;;;;;;;5028826;28;20261;-78
2022/04/10 22:06:35;;;;;;;13.33;9.20;;;;;;;;;;5029087;28;20234;-78
2022/04/10 22:09:07;;;;;;;11.20;9.00;;;;;;;;;;5022669;28;20213;-78
2022/04/10 22:11:45;;;;;;;10.07;9.07;;;;;;;;;;5033331;28;20228;-77
2022/04/10 22:14:18;;;;;;;9.97;8.97;;;;;;;;;;5042477;28;20201;-78
2022/04/10 22:17:16;;;;;;;10.10;9.10;;;;;;;;;;5024636;28;20230;-77
2022/04/10 22:19:50;;;;;;;11.50;9.17;;;;;;;;;;5022735;28;20234;-77
2022/04/10 22:22:21;;;;;;;10.47;9.43;;;;;;;;;;5001976;28;20194;-77
2022/04/10 22:24:58;;;;;;;9.73;8.73;;;;;;;;;;5003336;28;20207;-76
2022/04/10 22:27:25;;;;;;;10.00;8.97;;;;;;;;;;5018044;28;20242;-77
2022/04/10 22:29:56;;;;;;;10.73;9.50;;;;;;;;;;5023682;28;20225;-78
2022/04/10 22:32:26;;;;;;;10.90;9.27;;;;;;;;;;5003587;28;20254;-77
2022/04/10 22:35:17;;;;;;;10.33;9.33;;;;;;;;;;5003161;28;20207;-77
2022/04/10 22:37:44;;;;;;;10.77;8.93;;;;;;;;;;4999239;28;20207;-78
2022/04/10 22:40:48;;;;;;;10.67;9.63;;;;;;;;;;5006582;28;20203;-77
2022/04/10 22:43:22;;;;;;;11.60;9.30;;;;;;;;;;5042482;28;20205;-77
2022/04/10 22:45:50;;;;;;;10.23;9.17;;;;;;;;;;5036281;28;20241;-78
2022/04/10 22:48:21;;;;;;;9.97;8.97;;;;;;;;;;5022879;28;20207;-77
2022/04/10 22:50:49;;;;;;;10.77;9.77;;;;;;;;;;5027997;28;20220;-77
2022/04/10 22:53:16;;;;;;;12.43;10.37;;;;;;;;;;5041802;28;20399;-78
2022/04/10 22:55:47;;;;;;;10.00;9.00;;;;;;;;;;5037274;28;20219;-78
2022/04/10 22:58:15;;;;;;;10.33;9.30;;;;;;;;;;5022613;28;20214;-78
2022/04/10 23:00:44;;;;;;;10.47;9.47;;;;;;;;;;5025655;28;20190;-78
2022/04/10 23:03:13;;;;;;;10.60;9.50;;;;;;;;;;5043542;28;20204;-76
2022/04/10 23:05:41;;;;;;;10.17;9.27;;;;;;;;;;5038378;28;20245;-77
2022/04/10 23:08:08;;;;;;;10.57;9.30;;;;;;;;;;5021705;28;20226;-77
2022/04/10 23:10:35;;;;;;;11.13;10.03;;;;;;;;;;5022034;28;20243;-77
2022/04/10 23:13:04;;;;;;;11.87;10.70;;;;;;;;;;5023190;28;20218;-78
2022/04/10 23:15:34;;;;;;;11.13;10.07;;;;;;;;;;5021106;28;20226;-76
2022/04/10 23:18:02;;;;;;;12.33;10.60;;;;;;;;;;5040212;28;20249;-76
2022/04/10 23:20:29;;;;;;;12.70;10.30;;;;;;;;;;5039436;28;20293;-78
2022/04/10 23:22:56;;;;;;;11.13;9.90;;;;;;;;;;5018880;28;20202;-77
2022/04/10 23:25:24;;;;;;;12.33;9.90;;;;;;;;;;5020454;28;20226;-77
2022/04/10 23:27:54;;;;;;;10.53;9.43;;;;;;;;;;5020160;28;20206;-77
2022/04/10 23:30:23;;;;;;;12.43;11.17;;;;;;;;;;5020255;28;20214;-76
2022/04/10 23:32:54;;;;;;;11.53;10.27;;;;;;;;;;5037850;28;20268;-79
2022/04/10 23:35:22;;;;;;;11.67;9.70;;;;;;;;;;5037257;28;20205;-77
2022/04/10 23:37:50;;;;;;;11.23;10.07;;;;;;;;;;4999916;28;20223;-77
2022/04/10 23:40:19;;;;;;;10.27;9.27;;;;;;;;;;5021880;28;20213;-77
2022/04/10 23:42:46;;;;;;;10.80;9.80;;;;;;;;;;5016521;28;20199;-77
2022/04/10 23:45:14;;;;;;;10.73;8.90;;;;;;;;;;5015858;28;20217;-78
2022/04/10 23:47:42;;;;;;;10.17;9.17;;;;;;;;;;5020979;28;20249;-78
2022/04/10 23:50:10;;;;;;;11.27;10.00;;;;;;;;;;5020620;28;20711;-78
2022/04/10 23:52:37;;;;;;;10.37;9.37;;;;;;;;;;5020733;28;20230;-77
2022/04/10 23:55:12;;;;;;;10.33;8.87;;;;;;;;;;5035070;28;20228;-77
2022/04/10 23:57:39;;;;;;;10.20;8.83;;;;;;;;;;5029244;28;20263;-76
